Terminal Aerodrome Forecast
Issued by NWS

Home | Current Version | Previous Version | Graphics & Text | Print | Product List | Glossary On
Versions: 1 2 3 4 5 6 7 8 9 10 11 12 13 14 15 16 17 18
000
FTUS43 KTOP 031100
TAFFOE
TAF
KFOE 031121Z 0312/0412 20018G28KT 6SM BR OVC005
     FM031300 22016G26KT P6SM OVC011
     FM031500 26017G24KT P6SM SCT025
     FM032100 34016G23KT P6SM BKN030
     FM040200 36014KT P6SM BKN040=

USA.gov is the U.S. government's official web portal to all federal, state and local government web resources and services.